Ridge, Texas
Current Conditions -  °F | °C
As of 7:35 AM on Monday 22 Dec 2014 (Local Time) from KLHB Reporting Station
Overcast Overcast  
Wind Chill: 59°   Ceiling: 1100
Heat Index: 59°   Visibility: 10mi
Dew Point: 56°   Wind: 8mph
Humidity: 88%   Direction: 170°S
Pressure: 29.72"   Gusts: NA
Location:  31.0654°N, 96.4194°W
Report Text: KLHB 221335Z AUTO 17007KT 10SM OVC011 15/13 A2972 RMK AO2 T01510131
Loading
Personal Weather Stations






























Interactive Weather Map New forecast layout! Learn more

10-Day Weather Forecast

Advertisements
Track Severe Weather on mobile